Time;durP1;ratioP1;P1;durP2;ratioP2;P2;SDS_P1;SDS_P2;PMS_P1;PMS_P2;Temp;Humidity;BMP_temperature;BMP_pressure;BME280_temperature;BME280_humidity;BME280_pressure;Samples;Min_cycle;Max_cycle;Signal;HPM_P1;HPM_P2
2022/10/27 00:02:48;;;;;;;71.78;28.58;;;;;;;;;;6285380;28;20044;-65
2022/10/27 00:05:48;;;;;;;75.03;31.55;;;;;;;;;;6282379;28;20040;-72
2022/10/27 00:08:50;;;;;;;82.43;34.72;;;;;;;;;;6281026;28;20037;-70
2022/10/27 00:11:54;;;;;;;66.60;31.17;;;;;;;;;;6279126;28;20040;-67
2022/10/27 00:14:54;;;;;;;99.85;42.55;;;;;;;;;;6263336;28;20049;-72
2022/10/27 00:17:55;;;;;;;82.75;35.47;;;;;;;;;;6285921;28;20044;-70
2022/10/27 00:21:23;;;;;;;88.72;38.95;;;;;;;;;;6269670;28;20040;-67
2022/10/27 00:24:23;;;;;;;100.80;41.47;;;;;;;;;;6267970;28;20135;-72
2022/10/27 00:27:24;;;;;;;92.28;39.15;;;;;;;;;;6271058;28;20041;-73
2022/10/27 00:30:24;;;;;;;95.22;40.45;;;;;;;;;;6271041;28;20112;-72
2022/10/27 00:33:26;;;;;;;98.57;41.10;;;;;;;;;;6269058;28;20045;-71
2022/10/27 00:36:26;;;;;;;91.95;41.08;;;;;;;;;;6268744;28;20456;-72
2022/10/27 00:39:27;;;;;;;83.80;35.80;;;;;;;;;;6272382;28;20130;-71
2022/10/27 00:42:27;;;;;;;85.03;38.67;;;;;;;;;;6273870;28;20042;-72
2022/10/27 00:45:28;;;;;;;86.65;37.67;;;;;;;;;;6273562;28;20493;-71
2022/10/27 00:48:31;;;;;;;70.38;32.47;;;;;;;;;;6272567;28;20051;-72
2022/10/27 00:51:32;;;;;;;83.75;34.90;;;;;;;;;;6271581;28;20056;-71
2022/10/27 00:54:39;;;;;;;87.20;37.25;;;;;;;;;;6266554;28;20048;-71
2022/10/27 00:57:41;;;;;;;103.32;42.78;;;;;;;;;;6269823;28;20041;-71
2022/10/27 01:00:42;;;;;;;;;;;;;;;;;;6269597;28;20140;-72
2022/10/27 01:03:43;;;;;;;92.30;39.08;;;;;;;;;;6280609;28;20429;-72
2022/10/27 01:06:45;;;;;;;94.57;40.47;;;;;;;;;;6270339;28;20095;-71
2022/10/27 01:09:46;;;;;;;85.85;38.20;;;;;;;;;;6268672;28;20041;-70
2022/10/27 01:12:47;;;;;;;85.50;36.90;;;;;;;;;;6270625;28;20192;-69
2022/10/27 01:16:11;;;;;;;96.07;38.10;;;;;;;;;;6268622;28;20788;-71
2022/10/27 01:19:52;;;;;;;94.25;40.03;;;;;;;;;;6265969;28;20052;-71
2022/10/27 01:23:14;;;;;;;100.43;39.45;;;;;;;;;;6267560;28;20052;-69
2022/10/27 01:26:56;;;;;;;100.22;41.45;;;;;;;;;;6281521;28;20136;-71
2022/10/27 01:30:16;;;;;;;98.53;42.45;;;;;;;;;;6258804;28;20563;-72
2022/10/27 01:33:24;;;;;;;88.63;38.78;;;;;;;;;;6268485;28;20048;-72
2022/10/27 01:36:42;;;;;;;102.22;43.13;;;;;;;;;;6265516;28;20122;-68
2022/10/27 01:39:51;;;;;;;110.68;43.88;;;;;;;;;;6265856;28;20051;-71
2022/10/27 01:43:09;;;;;;;101.97;42.17;;;;;;;;;;6263817;28;20045;-72
2022/10/27 01:46:10;;;;;;;99.32;42.83;;;;;;;;;;6284163;28;20453;-73
2022/10/27 01:49:11;;;;;;;92.80;40.35;;;;;;;;;;6288325;28;20141;-67
2022/10/27 01:52:44;;;;;;;94.80;41.13;;;;;;;;;;6270219;28;20110;-67
2022/10/27 01:56:03;;;;;;;93.43;40.28;;;;;;;;;;6287048;28;20052;-70
2022/10/27 01:59:25;;;;;;;93.72;37.97;;;;;;;;;;6274844;28;20045;-65
2022/10/27 02:02:35;;;;;;;87.15;38.50;;;;;;;;;;6267929;28;20256;-69
2022/10/27 02:05:46;;;;;;;90.50;39.25;;;;;;;;;;6269114;28;20075;-67
2022/10/27 02:08:55;;;;;;;90.13;38.70;;;;;;;;;;6265573;28;20415;-68
2022/10/27 02:12:00;;;;;;;88.22;37.22;;;;;;;;;;6264108;28;20403;-70
2022/10/27 02:15:05;;;;;;;86.93;37.13;;;;;;;;;;6266271;28;20049;-71
2022/10/27 02:18:09;;;;;;;90.05;36.95;;;;;;;;;;6267765;28;20510;-70
2022/10/27 02:21:11;;;;;;;77.35;35.42;;;;;;;;;;6281576;28;20053;-72
2022/10/27 02:24:11;;;;;;;80.13;35.28;;;;;;;;;;6267870;28;20057;-71
2022/10/27 02:27:22;;;;;;;85.20;35.97;;;;;;;;;;6268164;28;20058;-71
2022/10/27 02:30:23;;;;;;;80.07;34.28;;;;;;;;;;6265965;28;20131;-70
2022/10/27 02:33:24;;;;;;;87.25;36.70;;;;;;;;;;6263862;28;20048;-70
2022/10/27 02:36:25;;;;;;;80.82;35.25;;;;;;;;;;6266517;28;20048;-70
2022/10/27 02:39:26;;;;;;;85.70;36.63;;;;;;;;;;6273758;28;20131;-71
2022/10/27 02:42:26;;;;;;;89.85;37.17;;;;;;;;;;6277705;28;20727;-71
2022/10/27 02:45:27;;;;;;;90.47;37.70;;;;;;;;;;6267889;28;20479;-70
2022/10/27 02:48:27;;;;;;;98.03;41.58;;;;;;;;;;6269134;28;20075;-69
2022/10/27 02:51:28;;;;;;;102.10;41.67;;;;;;;;;;6268172;28;20040;-71
2022/10/27 02:54:30;;;;;;;136.30;44.83;;;;;;;;;;6264271;28;20091;-71
2022/10/27 02:57:30;;;;;;;140.00;48.75;;;;;;;;;;6267822;28;20129;-70
2022/10/27 03:00:31;;;;;;;131.10;48.20;;;;;;;;;;6267632;28;20075;-71
2022/10/27 03:03:31;;;;;;;122.25;45.92;;;;;;;;;;6261457;28;20045;-67
2022/10/27 03:06:32;;;;;;;120.72;46.88;;;;;;;;;;6265682;28;20045;-69
2022/10/27 03:09:33;;;;;;;112.50;44.30;;;;;;;;;;6265288;28;20102;-71
2022/10/27 03:12:33;;;;;;;119.97;49.10;;;;;;;;;;6267190;28;20502;-72
2022/10/27 03:15:34;;;;;;;132.18;52.38;;;;;;;;;;6267712;28;20051;-72
2022/10/27 03:18:34;;;;;;;136.60;53.17;;;;;;;;;;6268101;28;20055;-69
2022/10/27 03:21:35;;;;;;;136.70;62.15;;;;;;;;;;6269720;28;20072;-71
2022/10/27 03:24:35;;;;;;;153.45;68.57;;;;;;;;;;6261727;28;20045;-70
2022/10/27 03:27:41;;;;;;;154.30;64.28;;;;;;;;;;6265618;28;20077;-68
2022/10/27 03:30:42;;;;;;;138.27;58.13;;;;;;;;;;6264865;28;20048;-66
2022/10/27 03:33:43;;;;;;;113.05;50.25;;;;;;;;;;6264388;28;20087;-73
2022/10/27 03:36:43;;;;;;;110.75;48.97;;;;;;;;;;6263067;28;20053;-70
2022/10/27 03:39:44;;;;;;;118.38;49.50;;;;;;;;;;6277277;28;20044;-69
2022/10/27 03:42:44;;;;;;;100.75;41.85;;;;;;;;;;6269151;28;20086;-70
2022/10/27 03:45:48;;;;;;;104.88;45.83;;;;;;;;;;6267942;28;20053;-72
2022/10/27 03:48:49;;;;;;;113.43;47.55;;;;;;;;;;6264502;28;20415;-71
2022/10/27 03:51:49;;;;;;;104.60;43.45;;;;;;;;;;6265715;28;20131;-69
2022/10/27 03:54:50;;;;;;;101.53;43.55;;;;;;;;;;6265143;28;20047;-69
2022/10/27 03:57:51;;;;;;;103.55;41.70;;;;;;;;;;6266258;28;20053;-72
2022/10/27 04:00:52;;;;;;;106.05;45.63;;;;;;;;;;6268838;28;20124;-70
2022/10/27 04:03:53;;;;;;;108.85;45.83;;;;;;;;;;6265002;28;20123;-70
2022/10/27 04:06:53;;;;;;;101.85;45.10;;;;;;;;;;6267462;28;20403;-69
2022/10/27 04:09:54;;;;;;;118.05;48.75;;;;;;;;;;6265996;28;20085;-70
2022/10/27 04:12:55;;;;;;;111.43;47.80;;;;;;;;;;6264081;28;20051;-72
2022/10/27 04:16:00;;;;;;;106.82;46.13;;;;;;;;;;6265874;28;20065;-68
2022/10/27 04:19:00;;;;;;;125.47;52.22;;;;;;;;;;6268171;28;20431;-69
2022/10/27 04:22:01;;;;;;;131.23;53.25;;;;;;;;;;6275448;28;20083;-73
2022/10/27 04:25:01;;;;;;;136.95;57.17;;;;;;;;;;6275056;28;20048;-70
2022/10/27 04:28:07;;;;;;;143.07;58.83;;;;;;;;;;6265001;28;20503;-70
2022/10/27 04:31:07;;;;;;;143.82;57.08;;;;;;;;;;6268607;28;20135;-71
2022/10/27 04:34:08;;;;;;;139.00;55.22;;;;;;;;;;6261236;28;20299;-69
2022/10/27 04:37:08;;;;;;;145.20;57.80;;;;;;;;;;6263345;28;20052;-67
2022/10/27 04:40:09;;;;;;;152.88;59.88;;;;;;;;;;6281465;28;20040;-68
2022/10/27 04:43:10;;;;;;;139.23;55.67;;;;;;;;;;6287387;28;20036;-70
2022/10/27 04:46:11;;;;;;;133.02;57.13;;;;;;;;;;6295318;28;20048;-69
2022/10/27 04:49:11;;;;;;;144.30;61.33;;;;;;;;;;6295500;28;20453;-70
2022/10/27 04:52:12;;;;;;;145.68;62.50;;;;;;;;;;6294836;28;20099;-67
2022/10/27 04:55:12;;;;;;;152.95;64.80;;;;;;;;;;6278189;28;20119;-67
2022/10/27 04:58:13;;;;;;;148.15;65.00;;;;;;;;;;6273475;28;20086;-68
2022/10/27 05:01:14;;;;;;;157.13;64.90;;;;;;;;;;6272597;28;20522;-64
2022/10/27 05:04:14;;;;;;;147.38;62.15;;;;;;;;;;6278250;28;20136;-65
2022/10/27 05:07:15;;;;;;;148.45;59.83;;;;;;;;;;6284350;28;20144;-69
2022/10/27 05:10:15;;;;;;;141.57;61.92;;;;;;;;;;6270052;28;20045;-71
2022/10/27 05:13:16;;;;;;;157.30;62.88;;;;;;;;;;6268218;28;20057;-72
2022/10/27 05:16:18;;;;;;;141.00;60.22;;;;;;;;;;6267733;28;20076;-66
2022/10/27 05:19:18;;;;;;;;;;;;;;;;;;6267769;28;20418;-63
2022/10/27 05:22:19;;;;;;;148.30;59.50;;;;;;;;;;6266586;28;19921;-65
2022/10/27 05:25:20;;;;;;;146.45;59.60;;;;;;;;;;6268388;28;20160;-66
2022/10/27 05:28:21;;;;;;;164.98;65.90;;;;;;;;;;6268591;28;20167;-67
2022/10/27 05:31:23;;;;;;;167.10;63.15;;;;;;;;;;6283095;28;20052;-70
2022/10/27 05:34:23;;;;;;;173.57;65.05;;;;;;;;;;6265759;28;20124;-72
2022/10/27 05:37:24;;;;;;;179.13;63.70;;;;;;;;;;6269700;28;20080;-70
2022/10/27 05:40:24;;;;;;;184.13;67.25;;;;;;;;;;6265980;28;20131;-72
2022/10/27 05:43:25;;;;;;;184.57;67.00;;;;;;;;;;6263330;28;20051;-71
2022/10/27 05:46:25;;;;;;;173.10;65.18;;;;;;;;;;6266157;28;20041;-69
2022/10/27 05:49:26;;;;;;;168.07;67.05;;;;;;;;;;6264450;28;20062;-71
2022/10/27 05:52:27;;;;;;;166.40;62.92;;;;;;;;;;6265194;28;20044;-72
2022/10/27 05:55:27;;;;;;;171.50;65.18;;;;;;;;;;6266164;28;20041;-69
2022/10/27 05:58:28;;;;;;;151.57;61.40;;;;;;;;;;6264588;28;20079;-67
2022/10/27 06:01:28;;;;;;;142.35;56.25;;;;;;;;;;6269201;28;20052;-72
2022/10/27 06:04:29;;;;;;;141.20;53.17;;;;;;;;;;6262828;28;20080;-68
2022/10/27 06:07:29;;;;;;;135.90;54.65;;;;;;;;;;6263817;28;20411;-69
2022/10/27 06:10:30;;;;;;;142.90;54.92;;;;;;;;;;6268064;28;20131;-68
2022/10/27 06:13:31;;;;;;;138.15;55.72;;;;;;;;;;6268074;28;20584;-67
2022/10/27 06:16:31;;;;;;;145.07;56.55;;;;;;;;;;6267713;28;20052;-70
2022/10/27 06:19:32;;;;;;;155.52;56.10;;;;;;;;;;6268297;28;20040;-68
2022/10/27 06:22:32;;;;;;;154.77;56.05;;;;;;;;;;6270716;28;20040;-71
2022/10/27 06:25:34;;;;;;;158.30;57.22;;;;;;;;;;6274572;28;20147;-69
2022/10/27 06:28:34;;;;;;;181.13;55.03;;;;;;;;;;6271095;28;20407;-69
2022/10/27 06:31:36;;;;;;;159.13;55.00;;;;;;;;;;6267202;28;20049;-72
2022/10/27 06:34:37;;;;;;;;;;;;;;;;;;6263924;28;20135;-72
2022/10/27 06:37:42;;;;;;;158.75;50.13;;;;;;;;;;6267107;28;20422;-69
2022/10/27 06:40:43;;;;;;;151.68;48.92;;;;;;;;;;6264587;28;20568;-73
2022/10/27 06:43:44;;;;;;;194.98;52.13;;;;;;;;;;6267476;28;20040;-69
2022/10/27 06:46:45;;;;;;;247.93;52.35;;;;;;;;;;6268120;28;20144;-71
2022/10/27 06:49:46;;;;;;;244.00;54.50;;;;;;;;;;6270427;28;20048;-71
2022/10/27 06:52:47;;;;;;;170.10;51.10;;;;;;;;;;6264808;28;20087;-72
2022/10/27 06:55:47;;;;;;;146.85;43.55;;;;;;;;;;6261574;28;20045;-69
2022/10/27 06:58:48;;;;;;;175.88;41.30;;;;;;;;;;6266432;28;20139;-69
2022/10/27 07:01:48;;;;;;;163.70;43.42;;;;;;;;;;6269428;28;20063;-69
2022/10/27 07:04:49;;;;;;;126.57;39.17;;;;;;;;;;6268722;28;20041;-66
2022/10/27 07:07:51;;;;;;;117.25;37.35;;;;;;;;;;6266012;28;20045;-70
2022/10/27 07:10:53;;;;;;;138.57;38.95;;;;;;;;;;6270105;28;20060;-67
2022/10/27 07:13:54;;;;;;;135.03;39.03;;;;;;;;;;6266569;28;20049;-64
2022/10/27 07:16:57;;;;;;;129.40;37.03;;;;;;;;;;6269522;28;20128;-68
2022/10/27 07:19:58;;;;;;;135.85;39.67;;;;;;;;;;6271144;28;20080;-69
2022/10/27 07:22:58;;;;;;;141.52;34.95;;;;;;;;;;6265017;28;20076;-69
2022/10/27 07:25:59;;;;;;;100.97;33.45;;;;;;;;;;6266778;28;20094;-67
2022/10/27 07:28:59;;;;;;;108.93;34.20;;;;;;;;;;6267249;28;20091;-68
2022/10/27 07:32:00;;;;;;;113.90;37.28;;;;;;;;;;6273005;28;20779;-69
2022/10/27 07:35:01;;;;;;;107.80;33.80;;;;;;;;;;6271141;28;20072;-68
2022/10/27 07:38:02;;;;;;;98.30;33.65;;;;;;;;;;6265256;28;20049;-67
2022/10/27 07:41:04;;;;;;;103.20;34.70;;;;;;;;;;6267665;28;20057;-68
2022/10/27 07:44:04;;;;;;;109.13;34.33;;;;;;;;;;6276272;28;20091;-68
2022/10/27 07:47:05;;;;;;;100.88;33.25;;;;;;;;;;6286540;28;20478;-69
2022/10/27 07:50:07;;;;;;;120.13;33.45;;;;;;;;;;6292441;28;20049;-69
2022/10/27 07:53:08;;;;;;;116.65;34.50;;;;;;;;;;6278002;28;20148;-69
2022/10/27 07:56:09;;;;;;;159.70;41.83;;;;;;;;;;6269046;28;20037;-69
2022/10/27 07:59:10;;;;;;;129.15;38.72;;;;;;;;;;6267944;28;20052;-68
2022/10/27 08:02:10;;;;;;;114.95;35.03;;;;;;;;;;6267176;28;20522;-69
2022/10/27 08:05:11;;;;;;;130.65;38.72;;;;;;;;;;6264791;28;20048;-68
2022/10/27 08:08:13;;;;;;;112.97;36.75;;;;;;;;;;6266070;28;20102;-68
2022/10/27 08:11:13;;;;;;;117.65;35.40;;;;;;;;;;6266785;28;20072;-66
2022/10/27 08:14:14;;;;;;;104.05;35.70;;;;;;;;;;6270664;28;20049;-69
2022/10/27 08:17:14;;;;;;;109.80;35.45;;;;;;;;;;6286539;28;20480;-69
2022/10/27 08:20:15;;;;;;;115.70;35.97;;;;;;;;;;6269823;28;21544;-75
2022/10/27 08:23:19;;;;;;;107.38;36.58;;;;;;;;;;6270593;28;20483;-70
2022/10/27 08:26:19;;;;;;;97.75;31.83;;;;;;;;;;6269316;28;20052;-69
2022/10/27 08:29:20;;;;;;;104.38;33.63;;;;;;;;;;6274391;28;20141;-68
2022/10/27 08:32:20;;;;;;;118.38;35.25;;;;;;;;;;6271856;28;20053;-69
2022/10/27 08:35:21;;;;;;;112.35;34.58;;;;;;;;;;6265571;28;20388;-69
2022/10/27 08:38:21;;;;;;;107.80;35.90;;;;;;;;;;6271553;28;20056;-69
2022/10/27 08:41:46;;;;;;;103.50;33.50;;;;;;;;;;6270459;28;20041;-69
2022/10/27 08:44:56;;;;;;;108.13;34.40;;;;;;;;;;6268423;28;20049;-67
2022/10/27 08:47:58;;;;;;;107.32;35.13;;;;;;;;;;6268625;28;20128;-68
2022/10/27 08:50:59;;;;;;;106.47;36.75;;;;;;;;;;6272492;28;20052;-68
2022/10/27 08:54:01;;;;;;;115.80;36.63;;;;;;;;;;6273006;28;20135;-69
2022/10/27 08:57:02;;;;;;;109.73;36.90;;;;;;;;;;6279687;28;20103;-67
2022/10/27 09:00:10;;;;;;;113.60;39.10;;;;;;;;;;6286754;28;20135;-68
2022/10/27 09:03:32;;;;;;;111.88;38.13;;;;;;;;;;6282848;28;20040;-69
2022/10/27 09:07:08;;;;;;;107.35;38.03;;;;;;;;;;6265805;28;20137;-69
2022/10/27 09:11:01;;;;;;;101.45;34.03;;;;;;;;;;6260400;28;20565;-74
2022/10/27 09:14:25;;;;;;;102.68;35.10;;;;;;;;;;6221471;28;20159;-68
2022/10/27 09:17:31;;;;;;;110.20;35.83;;;;;;;;;;6269121;28;20494;-70
2022/10/27 09:20:37;;;;;;;96.90;36.20;;;;;;;;;;6268226;28;20044;-70
2022/10/27 09:23:43;;;;;;;105.05;35.72;;;;;;;;;;6266379;28;20392;-70
2022/10/27 09:26:47;;;;;;;104.20;37.30;;;;;;;;;;6264280;28;20072;-69
2022/10/27 09:29:50;;;;;;;119.15;36.65;;;;;;;;;;6268736;28;20044;-69
2022/10/27 09:32:54;;;;;;;119.80;38.83;;;;;;;;;;6265978;28;20047;-69
2022/10/27 09:35:55;;;;;;;140.13;44.38;;;;;;;;;;6265221;28;20052;-69
2022/10/27 09:38:55;;;;;;;115.10;38.03;;;;;;;;;;6270403;28;20408;-64
2022/10/27 09:41:56;;;;;;;115.03;38.17;;;;;;;;;;6272182;28;20052;-70
2022/10/27 09:45:00;;;;;;;118.00;39.72;;;;;;;;;;6274227;28;20044;-69
2022/10/27 09:48:09;;;;;;;117.28;40.78;;;;;;;;;;6290111;28;20055;-69
2022/10/27 09:51:23;;;;;;;119.43;41.45;;;;;;;;;;6294320;28;20045;-67
2022/10/27 09:54:29;;;;;;;108.30;37.30;;;;;;;;;;6287657;28;20055;-69
2022/10/27 09:57:37;;;;;;;100.28;36.00;;;;;;;;;;6267365;28;20870;-68
2022/10/27 10:00:38;;;;;;;114.05;37.72;;;;;;;;;;6267929;28;20104;-71
2022/10/27 10:03:39;;;;;;;116.82;39.60;;;;;;;;;;6266604;28;20488;-69
2022/10/27 10:06:40;;;;;;;100.70;34.85;;;;;;;;;;6266588;28;20055;-69
2022/10/27 10:09:40;;;;;;;93.68;34.83;;;;;;;;;;6267317;28;20073;-69
2022/10/27 10:12:41;;;;;;;100.80;36.75;;;;;;;;;;6268477;28;20056;-68
2022/10/27 10:15:44;;;;;;;106.35;36.63;;;;;;;;;;6275922;28;20056;-69
2022/10/27 10:19:03;;;;;;;97.13;33.85;;;;;;;;;;6274999;28;20095;-69
2022/10/27 10:22:04;;;;;;;90.60;33.53;;;;;;;;;;6267956;28;20578;-70
2022/10/27 10:25:32;;;;;;;84.22;31.80;;;;;;;;;;6271165;28;20056;-69
2022/10/27 10:28:36;;;;;;;84.45;32.22;;;;;;;;;;6267786;28;20135;-70
2022/10/27 10:31:36;;;;;;;81.28;31.58;;;;;;;;;;6288958;28;20147;-68
2022/10/27 10:34:38;;;;;;;85.22;32.63;;;;;;;;;;6290845;28;20786;-69
2022/10/27 10:37:44;;;;;;;88.55;35.15;;;;;;;;;;6292419;28;20102;-69
2022/10/27 10:40:57;;;;;;;86.85;32.58;;;;;;;;;;6288756;28;20136;-70
2022/10/27 10:44:12;;;;;;;79.93;32.03;;;;;;;;;;6273412;28;20055;-68
2022/10/27 10:47:22;;;;;;;79.85;30.35;;;;;;;;;;6272587;28;20061;-68
2022/10/27 10:50:23;;;;;;;71.00;27.48;;;;;;;;;;6264561;28;20483;-69
2022/10/27 10:53:38;;;;;;;68.05;28.98;;;;;;;;;;6264989;28;20101;-68
2022/10/27 10:56:38;;;;;;;70.00;28.02;;;;;;;;;;6270735;28;20041;-68
2022/10/27 10:59:43;;;;;;;67.60;27.73;;;;;;;;;;6265621;28;20051;-69
2022/10/27 11:02:58;;;;;;;70.47;27.75;;;;;;;;;;6265975;28;20037;-69
2022/10/27 11:06:03;;;;;;;73.28;28.15;;;;;;;;;;6266802;28;20053;-67
2022/10/27 11:09:03;;;;;;;65.57;27.08;;;;;;;;;;6264563;28;20478;-69
2022/10/27 11:12:13;;;;;;;65.88;26.67;;;;;;;;;;6264890;28;20041;-69
2022/10/27 11:15:16;;;;;;;64.30;27.00;;;;;;;;;;6263597;28;20058;-68
2022/10/27 11:18:53;;;;;;;60.97;25.98;;;;;;;;;;6265547;28;20045;-69
2022/10/27 11:22:00;;;;;;;59.65;24.40;;;;;;;;;;6267890;28;20502;-68
2022/10/27 11:25:06;;;;;;;59.45;25.02;;;;;;;;;;6267758;28;20084;-69
2022/10/27 11:28:16;;;;;;;56.78;21.70;;;;;;;;;;6265620;28;20044;-68
2022/10/27 11:31:54;;;;;;;48.13;20.70;;;;;;;;;;6266555;28;20139;-69
2022/10/27 11:35:06;;;;;;;55.50;20.30;;;;;;;;;;6266859;28;20151;-63
2022/10/27 11:38:24;;;;;;;48.05;20.00;;;;;;;;;;6266523;28;20407;-67
2022/10/27 11:41:35;;;;;;;52.30;20.88;;;;;;;;;;6265187;28;20762;-69
2022/10/27 11:45:10;;;;;;;49.07;20.90;;;;;;;;;;6266740;28;20181;-69
2022/10/27 11:48:18;;;;;;;47.35;21.02;;;;;;;;;;6266662;28;20136;-69
2022/10/27 11:51:29;;;;;;;51.38;19.13;;;;;;;;;;6269473;28;20605;-69
2022/10/27 11:54:30;;;;;;;44.95;19.48;;;;;;;;;;6271154;28;20490;-70
2022/10/27 11:57:54;;;;;;;47.58;19.27;;;;;;;;;;6270840;28;20548;-69
2022/10/27 12:01:10;;;;;;;51.25;20.25;;;;;;;;;;6262656;28;20922;-68
2022/10/27 12:04:20;;;;;;;44.85;19.73;;;;;;;;;;6268963;28;20056;-69
2022/10/27 12:07:42;;;;;;;45.72;19.65;;;;;;;;;;6268438;28;20051;-69
2022/10/27 12:11:13;;;;;;;51.67;20.40;;;;;;;;;;6269675;28;20629;-70
2022/10/27 12:14:29;;;;;;;50.28;20.98;;;;;;;;;;6271845;28;20071;-68
2022/10/27 12:17:41;;;;;;;44.78;19.98;;;;;;;;;;6269306;28;20064;-69
2022/10/27 12:20:44;;;;;;;38.35;18.05;;;;;;;;;;6272765;28;20053;-70
2022/10/27 12:24:00;;;;;;;43.50;18.27;;;;;;;;;;6272255;28;20553;-69
2022/10/27 12:27:11;;;;;;;35.70;15.82;;;;;;;;;;6273948;28;20041;-67
2022/10/27 12:30:14;;;;;;;38.85;16.83;;;;;;;;;;6270126;28;20071;-68
2022/10/27 12:34:06;;;;;;;48.00;18.38;;;;;;;;;;6269120;28;20411;-69
2022/10/27 12:37:14;;;;;;;36.65;16.58;;;;;;;;;;6199336;28;20058;-69
2022/10/27 12:40:27;;;;;;;30.02;13.85;;;;;;;;;;6270623;28;20049;-70
2022/10/27 12:43:54;;;;;;;27.52;13.02;;;;;;;;;;6270334;28;20044;-68
2022/10/27 12:47:05;;;;;;;26.40;12.18;;;;;;;;;;6270752;28;20101;-70
2022/10/27 12:50:54;;;;;;;25.90;11.35;;;;;;;;;;6268665;28;20487;-68
2022/10/27 12:54:05;;;;;;;23.50;11.43;;;;;;;;;;6241558;28;20045;-64
2022/10/27 12:57:42;;;;;;;26.63;12.38;;;;;;;;;;6254938;28;20367;-67
2022/10/27 13:00:50;;;;;;;25.52;11.85;;;;;;;;;;6249251;28;21417;-66
2022/10/27 13:03:57;;;;;;;28.73;11.05;;;;;;;;;;6250489;28;20563;-66
2022/10/27 13:07:23;;;;;;;26.23;11.65;;;;;;;;;;6248533;28;20055;-66
2022/10/27 13:10:27;;;;;;;23.95;9.90;;;;;;;;;;6250957;28;20049;-66
2022/10/27 13:13:36;;;;;;;33.75;11.45;;;;;;;;;;6253536;28;20079;-66
2022/10/27 13:16:45;;;;;;;27.77;11.68;;;;;;;;;;6252512;28;20052;-68
2022/10/27 13:19:56;;;;;;;30.77;13.13;;;;;;;;;;6262667;28;20123;-66
2022/10/27 13:23:10;;;;;;;31.05;12.70;;;;;;;;;;6262285;28;20072;-66
2022/10/27 13:26:30;;;;;;;25.00;11.55;;;;;;;;;;6263948;28;20064;-66
2022/10/27 13:29:33;;;;;;;25.42;10.23;;;;;;;;;;6261411;28;20766;-66
2022/10/27 13:32:46;;;;;;;23.90;11.13;;;;;;;;;;6261348;28;20053;-67
2022/10/27 13:36:16;;;;;;;31.38;12.23;;;;;;;;;;6264864;28;20051;-66
2022/10/27 13:39:16;;;;;;;25.48;11.30;;;;;;;;;;6263940;28;20421;-67
2022/10/27 13:42:17;;;;;;;23.05;11.48;;;;;;;;;;6259779;28;20044;-69
2022/10/27 13:45:29;;;;;;;22.23;11.77;;;;;;;;;;6263476;28;20572;-68
2022/10/27 13:48:32;;;;;;;29.83;12.13;;;;;;;;;;6263225;28;20073;-67
2022/10/27 13:51:40;;;;;;;28.80;13.10;;;;;;;;;;6259573;28;20060;-69
2022/10/27 13:55:06;;;;;;;27.08;12.38;;;;;;;;;;6261447;28;20055;-69
2022/10/27 13:58:20;;;;;;;25.88;11.55;;;;;;;;;;6263571;28;20468;-71
2022/10/27 14:01:44;;;;;;;28.60;11.80;;;;;;;;;;6258879;28;20072;-67
2022/10/27 14:04:53;;;;;;;30.38;12.18;;;;;;;;;;6262581;28;20052;-70
2022/10/27 14:07:54;;;;;;;27.90;12.40;;;;;;;;;;6259963;28;20143;-71
2022/10/27 14:10:58;;;;;;;34.03;13.70;;;;;;;;;;6255609;28;20055;-72
2022/10/27 14:14:06;;;;;;;33.05;13.82;;;;;;;;;;6259353;28;20053;-70
2022/10/27 14:17:17;;;;;;;33.67;13.27;;;;;;;;;;6259307;28;20063;-68
2022/10/27 14:20:22;;;;;;;30.60;13.02;;;;;;;;;;6254450;28;20079;-69
2022/10/27 14:23:25;;;;;;;64.72;22.25;;;;;;;;;;6252406;28;20144;-70
2022/10/27 14:26:35;;;;;;;49.65;25.70;;;;;;;;;;6256608;28;20139;-67
2022/10/27 14:29:36;;;;;;;34.80;13.70;;;;;;;;;;6254834;28;20507;-68
2022/10/27 14:32:36;;;;;;;27.33;13.65;;;;;;;;;;6255306;28;20093;-67
2022/10/27 14:35:37;;;;;;;29.70;13.45;;;;;;;;;;6258906;28;20135;-67
2022/10/27 14:38:42;;;;;;;36.60;13.63;;;;;;;;;;6257790;28;20885;-67
2022/10/27 14:41:47;;;;;;;25.63;13.52;;;;;;;;;;6256094;28;20115;-67
2022/10/27 14:44:58;;;;;;;28.05;13.93;;;;;;;;;;6258572;28;20045;-67
2022/10/27 14:48:01;;;;;;;32.58;14.15;;;;;;;;;;6255971;28;20056;-69
2022/10/27 14:51:11;;;;;;;30.20;14.00;;;;;;;;;;6255360;28;20057;-67
2022/10/27 14:54:17;;;;;;;28.17;13.65;;;;;;;;;;6257898;28;20676;-67
2022/10/27 14:57:35;;;;;;;32.72;13.30;;;;;;;;;;6258623;28;20139;-66
2022/10/27 15:00:37;;;;;;;28.27;13.07;;;;;;;;;;6256914;28;20115;-67
2022/10/27 15:03:37;;;;;;;;;;;;;;;;;;6256642;28;20061;-67
2022/10/27 15:06:38;;;;;;;36.20;15.07;;;;;;;;;;6257356;28;20306;-67
2022/10/27 15:09:41;;;;;;;97.18;34.25;;;;;;;;;;6266152;28;20108;-66
2022/10/27 15:12:47;;;;;;;39.25;17.42;;;;;;;;;;6254480;28;20144;-66
2022/10/27 15:15:49;;;;;;;46.63;17.48;;;;;;;;;;6256994;28;20053;-66
2022/10/27 15:18:50;;;;;;;;;;;;;;;;;;6257822;28;20484;-66
2022/10/27 15:21:52;;;;;;;38.92;17.23;;;;;;;;;;6254654;28;19921;-67
2022/10/27 15:24:54;;;;;;;31.03;14.70;;;;;;;;;;6256121;28;20175;-66
2022/10/27 15:27:58;;;;;;;31.45;13.10;;;;;;;;;;6255160;28;20088;-66
2022/10/27 15:31:00;;;;;;;30.00;13.18;;;;;;;;;;6255853;28;20053;-66
2022/10/27 15:34:06;;;;;;;29.30;13.90;;;;;;;;;;6258072;28;20071;-69
2022/10/27 15:37:28;;;;;;;31.00;14.30;;;;;;;;;;6256475;28;20500;-61
2022/10/27 15:40:43;;;;;;;30.73;13.45;;;;;;;;;;6253621;28;20052;-61
2022/10/27 15:43:46;;;;;;;40.20;17.08;;;;;;;;;;6256375;28;20060;-69
2022/10/27 15:46:47;;;;;;;37.85;18.23;;;;;;;;;;6255597;28;20495;-63
2022/10/27 15:49:50;;;;;;;51.95;18.70;;;;;;;;;;6257436;28;20045;-65
2022/10/27 15:53:24;;;;;;;52.92;21.63;;;;;;;;;;6255990;28;20063;-71
2022/10/27 15:56:30;;;;;;;48.03;19.00;;;;;;;;;;6253783;28;20162;-66
2022/10/27 15:59:32;;;;;;;41.75;19.33;;;;;;;;;;6254096;28;20870;-68
2022/10/27 16:02:35;;;;;;;41.13;18.25;;;;;;;;;;6255481;28;20144;-63
2022/10/27 16:05:36;;;;;;;42.80;18.38;;;;;;;;;;6256262;28;20112;-63
2022/10/27 16:08:38;;;;;;;48.92;19.08;;;;;;;;;;6255805;28;20049;-64
2022/10/27 16:11:40;;;;;;;34.97;15.43;;;;;;;;;;6255501;28;20053;-67
2022/10/27 16:14:44;;;;;;;49.28;21.17;;;;;;;;;;6257342;28;20045;-66
2022/10/27 16:17:48;;;;;;;58.92;23.60;;;;;;;;;;6257684;28;20163;-67
2022/10/27 16:20:49;;;;;;;48.03;22.10;;;;;;;;;;6259825;28;20080;-67
2022/10/27 16:23:49;;;;;;;54.58;23.13;;;;;;;;;;6255061;28;20074;-66
2022/10/27 16:26:51;;;;;;;74.13;28.10;;;;;;;;;;6255601;28;20063;-66
2022/10/27 16:29:55;;;;;;;;;;;;;;;;;;6259541;28;20565;-66
2022/10/27 16:33:01;;;;;;;68.13;28.88;;;;;;;;;;6254089;28;19959;-66
2022/10/27 16:36:02;;;;;;;78.03;31.67;;;;;;;;;;6264942;28;20064;-66
2022/10/27 16:39:02;;;;;;;84.50;32.28;;;;;;;;;;6260275;28;20111;-67
2022/10/27 16:42:03;;;;;;;70.18;31.05;;;;;;;;;;6256663;28;20136;-68
2022/10/27 16:45:11;;;;;;;78.57;33.78;;;;;;;;;;6258872;28;20203;-67
2022/10/27 16:48:12;;;;;;;84.70;32.92;;;;;;;;;;6259055;28;20091;-69
2022/10/27 16:51:14;;;;;;;75.07;32.00;;;;;;;;;;6256268;28;20172;-68
2022/10/27 16:54:15;;;;;;;85.47;35.70;;;;;;;;;;6262654;28;20053;-67
2022/10/27 16:57:16;;;;;;;91.25;37.17;;;;;;;;;;6260009;28;20091;-68
2022/10/27 17:00:16;;;;;;;90.10;36.75;;;;;;;;;;6256822;28;20438;-66
2022/10/27 17:03:17;;;;;;;95.85;40.75;;;;;;;;;;6255669;28;20480;-66
2022/10/27 17:06:20;;;;;;;104.63;42.70;;;;;;;;;;6259499;28;20053;-67
2022/10/27 17:09:20;;;;;;;96.47;40.83;;;;;;;;;;6257407;28;20048;-67
2022/10/27 17:12:21;;;;;;;97.40;38.55;;;;;;;;;;6255805;28;20084;-66
2022/10/27 17:15:22;;;;;;;90.18;38.50;;;;;;;;;;6258183;28;20045;-64
2022/10/27 17:18:22;;;;;;;86.20;35.17;;;;;;;;;;6259437;28;20041;-67
2022/10/27 17:21:23;;;;;;;88.28;36.47;;;;;;;;;;6257790;28;20049;-69
2022/10/27 17:24:24;;;;;;;99.22;40.28;;;;;;;;;;6259057;28;20049;-65
2022/10/27 17:27:24;;;;;;;90.22;37.35;;;;;;;;;;6265093;28;21011;-69
2022/10/27 17:30:25;;;;;;;99.25;41.75;;;;;;;;;;6260085;28;20547;-68
2022/10/27 17:33:25;;;;;;;108.90;43.38;;;;;;;;;;6257551;28;20072;-66
2022/10/27 17:36:26;;;;;;;96.88;37.80;;;;;;;;;;6257790;28;20700;-66
2022/10/27 17:39:27;;;;;;;122.22;51.60;;;;;;;;;;6256980;28;20073;-66
2022/10/27 17:42:29;;;;;;;108.60;48.83;;;;;;;;;;6258722;28;20150;-67
2022/10/27 17:45:30;;;;;;;109.68;46.67;;;;;;;;;;6262954;28;20490;-70
2022/10/27 17:48:36;;;;;;;109.78;47.33;;;;;;;;;;6259510;28;20048;-66
2022/10/27 17:51:36;;;;;;;110.63;47.65;;;;;;;;;;6257882;28;20123;-67
2022/10/27 17:54:40;;;;;;;103.90;45.92;;;;;;;;;;6262006;28;20049;-67
2022/10/27 17:57:40;;;;;;;117.03;52.25;;;;;;;;;;6259148;28;20514;-69